createdAt,value
2023-04-02T00:02:18.336Z,10.07
2023-04-02T00:04:44.838Z,9.07
2023-04-02T00:07:38.307Z,11.70
2023-04-02T00:10:24.988Z,8.87
2023-04-02T00:13:00.394Z,15.10
2023-04-02T00:15:26.876Z,11.27
2023-04-02T00:17:53.486Z,12.50
2023-04-02T00:20:20.547Z,11.37
2023-04-02T00:22:50.963Z,9.57
2023-04-02T00:25:17.419Z,10.17
2023-04-02T00:27:43.853Z,10.57
2023-04-02T00:30:12.985Z,9.80
2023-04-02T00:32:39.615Z,11.00
2023-04-02T00:35:12.991Z,11.43
2023-04-02T00:37:42.112Z,9.27
2023-04-02T00:40:19.515Z,8.40
2023-04-02T00:42:46.546Z,9.13
2023-04-02T00:45:24.918Z,11.33
2023-04-02T00:47:51.895Z,6.50
2023-04-02T00:50:20.875Z,10.40
2023-04-02T00:52:49.085Z,11.37
2023-04-02T00:55:17.891Z,7.97
2023-04-02T00:57:45.228Z,9.53
2023-04-02T01:00:12.133Z,14.07
2023-04-02T01:02:40.814Z,9.53
2023-04-02T01:05:16.681Z,8.97
2023-04-02T01:07:49.500Z,8.87
2023-04-02T01:10:31.301Z,7.67
2023-04-02T01:13:00.831Z,7.93
2023-04-02T01:15:30.460Z,9.17
2023-04-02T01:18:06.516Z,7.00
2023-04-02T01:20:51.923Z,8.23
2023-04-02T01:23:21.118Z,6.10
2023-04-02T01:25:47.447Z,6.73
2023-04-02T01:28:14.809Z,8.80
2023-04-02T01:30:45.127Z,11.07
2023-04-02T01:33:11.941Z,9.20
2023-04-02T01:35:41.352Z,9.17
2023-04-02T01:38:13.954Z,9.80
2023-04-02T01:40:49.468Z,7.60
2023-04-02T01:43:30.095Z,11.27
2023-04-02T01:45:59.418Z,7.53
2023-04-02T01:48:30.029Z,8.93
2023-04-02T01:50:57.672Z,11.33
2023-04-02T01:53:25.675Z,11.47
2023-04-02T01:55:54.057Z,8.23
2023-04-02T01:58:25.401Z,7.47
2023-04-02T02:00:56.165Z,7.47
2023-04-02T02:03:23.299Z,7.37
2023-04-02T02:05:50.663Z,8.73
2023-04-02T02:08:32.221Z,8.00
2023-04-02T02:10:58.735Z,8.60
2023-04-02T02:13:25.428Z,9.67
2023-04-02T02:15:52.027Z,12.50
2023-04-02T02:18:23.284Z,11.27
2023-04-02T02:20:50.834Z,8.43
2023-04-02T02:23:17.250Z,11.90
2023-04-02T02:25:44.417Z,7.13
2023-04-02T02:28:14.647Z,9.57
2023-04-02T02:30:44.180Z,7.67
2023-04-02T02:33:14.474Z,12.03
2023-04-02T02:35:44.611Z,11.03
2023-04-02T02:38:30.016Z,8.53
2023-04-02T02:40:58.485Z,7.87
2023-04-02T02:43:25.500Z,9.37
2023-04-02T02:45:53.911Z,8.30
2023-04-02T02:48:23.868Z,8.23
2023-04-02T02:50:51.103Z,8.73
2023-04-02T02:53:22.221Z,11.30
2023-04-02T02:55:54.470Z,6.60
2023-04-02T02:58:28.844Z,7.30
2023-04-02T03:00:55.442Z,10.27
2023-04-02T03:03:24.697Z,9.87
2023-04-02T03:05:56.818Z,8.30
2023-04-02T03:08:28.446Z,5.17
2023-04-02T03:11:03.987Z,4.73
2023-04-02T03:13:35.558Z,5.03
2023-04-02T03:16:17.624Z,7.53
2023-04-02T03:18:53.445Z,6.13
2023-04-02T03:21:39.861Z,5.90
2023-04-02T03:24:16.054Z,6.03
2023-04-02T03:26:46.734Z,6.47
2023-04-02T03:29:16.446Z,5.57
2023-04-02T03:31:49.168Z,6.67
2023-04-02T03:34:25.172Z,4.20
2023-04-02T03:36:52.195Z,6.63
2023-04-02T03:39:22.918Z,7.23
2023-04-02T03:41:52.331Z,4.47
2023-04-02T03:44:25.959Z,6.90
2023-04-02T03:47:01.521Z,5.53
2023-04-02T03:49:41.334Z,5.63
2023-04-02T03:52:12.343Z,6.77
2023-04-02T03:54:40.392Z,6.07
2023-04-02T03:57:40.461Z,7.20
2023-04-02T04:00:13.916Z,9.20
2023-04-02T04:02:52.521Z,4.90
2023-04-02T04:05:42.779Z,7.17
2023-04-02T04:08:15.359Z,5.67
2023-04-02T04:10:42.936Z,8.87
2023-04-02T04:13:18.832Z,6.27
2023-04-02T04:15:48.010Z,7.83
2023-04-02T04:18:24.251Z,4.50
2023-04-02T04:20:56.687Z,5.33
2023-04-02T04:23:30.298Z,4.23
2023-04-02T04:25:57.902Z,7.83
2023-04-02T04:28:44.635Z,6.97
2023-04-02T04:31:18.002Z,5.47
2023-04-02T04:33:46.879Z,6.70
2023-04-02T04:36:28.490Z,3.93
2023-04-02T04:39:01.361Z,6.70
2023-04-02T04:41:32.525Z,5.23
2023-04-02T04:43:58.968Z,8.10
2023-04-02T04:46:37.488Z,7.60
2023-04-02T04:49:22.806Z,5.50
2023-04-02T04:51:57.045Z,5.57
2023-04-02T04:54:25.786Z,7.17
2023-04-02T04:56:55.782Z,6.60
2023-04-02T04:59:42.567Z,4.97
2023-04-02T05:02:08.900Z,5.07
2023-04-02T05:04:37.117Z,8.83
2023-04-02T05:07:03.590Z,5.07
2023-04-02T05:09:33.274Z,6.07
2023-04-02T05:12:00.900Z,6.93
2023-04-02T05:14:33.716Z,6.53
2023-04-02T05:17:06.371Z,7.30
2023-04-02T05:19:36.310Z,5.83
2023-04-02T05:22:29.591Z,6.27
2023-04-02T05:24:55.920Z,6.70
2023-04-02T05:27:36.254Z,8.83
2023-04-02T05:30:15.535Z,7.47
2023-04-02T05:32:45.787Z,8.93
2023-04-02T05:35:17.233Z,7.03
2023-04-02T05:37:44.862Z,6.00
2023-04-02T05:40:34.518Z,10.93
2023-04-02T05:43:01.402Z,5.00
2023-04-02T05:45:34.184Z,6.20
2023-04-02T05:48:04.381Z,6.53
2023-04-02T05:50:37.403Z,9.10
2023-04-02T05:53:11.227Z,5.17
2023-04-02T05:55:49.900Z,5.63
2023-04-02T05:58:35.256Z,6.70
2023-04-02T06:01:12.100Z,5.57
2023-04-02T06:03:57.498Z,6.03
2023-04-02T06:06:39.083Z,3.87
2023-04-02T06:09:32.023Z,5.17
2023-04-02T06:12:04.500Z,7.50
2023-04-02T06:14:31.092Z,4.97
2023-04-02T06:16:57.741Z,3.87
2023-04-02T06:19:27.442Z,3.83
2023-04-02T06:22:09.306Z,5.37
2023-04-02T06:24:38.732Z,4.80
2023-04-02T06:27:06.502Z,5.43
2023-04-02T06:29:38.369Z,5.37
2023-04-02T06:32:08.714Z,5.37
2023-04-02T06:34:36.697Z,6.17
2023-04-02T06:37:14.933Z,4.63
2023-04-02T06:39:41.712Z,4.93
2023-04-02T06:42:17.878Z,8.27
2023-04-02T06:44:44.298Z,3.43
2023-04-02T06:47:10.754Z,3.30
2023-04-02T06:49:44.945Z,6.40
2023-04-02T06:52:17.461Z,4.17
2023-04-02T06:54:44.976Z,5.73
2023-04-02T06:57:12.582Z,4.53
2023-04-02T06:59:39.114Z,7.53
2023-04-02T07:02:16.026Z,4.77
2023-04-02T07:04:42.446Z,3.53
2023-04-02T07:07:08.879Z,6.10
2023-04-02T07:09:35.227Z,7.33
2023-04-02T07:12:02.650Z,4.20
2023-04-02T07:14:29.033Z,4.70
2023-04-02T07:16:55.429Z,4.73
2023-04-02T07:19:23.021Z,3.77
2023-04-02T07:21:49.430Z,4.77
2023-04-02T07:24:15.960Z,8.30
2023-04-02T07:26:42.563Z,4.87
2023-04-02T07:29:13.534Z,6.03
2023-04-02T07:31:40.926Z,4.73
2023-04-02T07:34:07.812Z,4.40
2023-04-02T07:36:34.245Z,2.53
2023-04-02T07:39:03.672Z,6.47
2023-04-02T07:41:30.167Z,2.83
2023-04-02T07:43:56.683Z,4.53
2023-04-02T07:46:23.255Z,4.03
2023-04-02T07:48:49.838Z,3.63
2023-04-02T07:51:16.668Z,6.93
2023-04-02T07:53:43.147Z,4.03
2023-04-02T07:56:13.429Z,3.33
2023-04-02T07:58:41.872Z,4.60
2023-04-02T08:01:14.755Z,2.83
2023-04-02T08:03:41.607Z,5.07
2023-04-02T08:06:08.127Z,2.97
2023-04-02T08:08:34.479Z,4.33
2023-04-02T08:11:01.112Z,3.93
2023-04-02T08:13:27.559Z,3.50
2023-04-02T08:15:54.074Z,5.20
2023-04-02T08:18:22.408Z,4.50
2023-04-02T08:20:48.798Z,2.77
2023-04-02T08:23:19.441Z,5.07
2023-04-02T08:25:46.283Z,4.20
2023-04-02T08:28:12.690Z,5.53
2023-04-02T08:30:39.304Z,6.07
2023-04-02T08:33:06.493Z,3.47
2023-04-02T08:35:33.207Z,3.23
2023-04-02T08:37:59.771Z,4.57
2023-04-02T08:40:36.977Z,5.40
2023-04-02T08:43:14.960Z,3.67
2023-04-02T08:45:49.516Z,2.53
2023-04-02T08:48:16.106Z,2.00
2023-04-02T08:50:43.520Z,6.03
2023-04-02T08:53:13.711Z,3.30
2023-04-02T08:56:05.874Z,3.80
2023-04-02T08:58:39.100Z,4.47
2023-04-02T09:01:07.278Z,5.33
2023-04-02T09:03:39.884Z,3.53
2023-04-02T09:06:07.769Z,5.63
2023-04-02T09:08:37.392Z,6.43
2023-04-02T09:11:03.851Z,5.53
2023-04-02T09:13:31.418Z,6.50
2023-04-02T09:16:06.673Z,2.37
2023-04-02T09:18:33.486Z,1.77
2023-04-02T09:21:03.494Z,3.63
2023-04-02T09:23:29.880Z,5.67
2023-04-02T09:26:04.141Z,3.77
2023-04-02T09:28:33.111Z,3.70
2023-04-02T09:31:06.874Z,2.77
2023-04-02T09:33:46.052Z,2.63
2023-04-02T09:36:39.001Z,5.00
2023-04-02T09:39:16.245Z,4.20
2023-04-02T09:41:43.785Z,4.07
2023-04-02T09:44:19.855Z,3.07
2023-04-02T09:46:53.961Z,2.77
2023-04-02T09:49:22.993Z,5.97
2023-04-02T09:52:10.615Z,5.57
2023-04-02T09:54:43.662Z,2.60
2023-04-02T09:57:23.075Z,3.97
2023-04-02T10:00:31.494Z,1.83
2023-04-02T10:03:01.450Z,3.23
2023-04-02T10:05:39.971Z,5.10
2023-04-02T10:08:14.599Z,6.27
2023-04-02T10:10:44.888Z,3.43
2023-04-02T10:13:20.539Z,3.07
2023-04-02T10:16:06.016Z,4.47
2023-04-02T10:18:35.635Z,6.97
2023-04-02T10:21:03.409Z,7.27
2023-04-02T10:23:30.624Z,7.77
2023-04-02T10:26:28.593Z,2.33
2023-04-02T10:29:14.225Z,4.27
2023-04-02T10:31:52.076Z,4.43
2023-04-02T10:34:28.053Z,3.37
2023-04-02T10:36:56.234Z,7.67
2023-04-02T10:39:31.552Z,5.40
2023-04-02T10:42:35.915Z,3.13
2023-04-02T10:45:13.439Z,7.93
2023-04-02T10:47:45.400Z,3.40
2023-04-02T10:50:12.039Z,3.87
2023-04-02T10:52:59.692Z,5.20
2023-04-02T10:55:28.050Z,3.93
2023-04-02T10:57:59.879Z,4.73
2023-04-02T11:00:33.573Z,2.67
2023-04-02T11:03:03.222Z,3.27
2023-04-02T11:05:29.804Z,2.37
2023-04-02T11:08:05.685Z,1.93
2023-04-02T11:10:35.405Z,4.27
2023-04-02T11:13:16.906Z,2.13
2023-04-02T11:15:46.167Z,1.77
2023-04-02T11:18:24.669Z,3.77
2023-04-02T11:20:51.231Z,4.90
2023-04-02T11:23:18.821Z,1.47
2023-04-02T11:25:47.979Z,3.53
2023-04-02T11:28:27.633Z,3.90
2023-04-02T11:30:55.943Z,3.03
2023-04-02T11:33:41.371Z,2.07
2023-04-02T11:36:29.335Z,2.73
2023-04-02T11:39:01.874Z,3.00
2023-04-02T11:42:00.512Z,3.40
2023-04-02T11:44:26.943Z,2.50
2023-04-02T11:47:13.272Z,3.87
2023-04-02T11:49:40.262Z,4.50
2023-04-02T11:52:20.750Z,1.70
2023-04-02T11:54:54.896Z,2.83
2023-04-02T11:57:38.004Z,2.50
2023-04-02T12:00:24.891Z,3.90
2023-04-02T12:03:03.388Z,2.23
2023-04-02T12:05:39.439Z,3.27
2023-04-02T12:08:22.685Z,4.73
2023-04-02T12:10:54.261Z,3.07
2023-04-02T12:13:47.745Z,4.57
2023-04-02T12:16:14.331Z,7.23
2023-04-02T12:18:44.905Z,3.97
2023-04-02T12:21:14.989Z,5.40
2023-04-02T12:23:44.777Z,4.93
2023-04-02T12:26:26.428Z,4.03
2023-04-02T12:28:52.993Z,4.20
2023-04-02T12:31:25.278Z,6.83
2023-04-02T12:33:52.897Z,4.73
2023-04-02T12:36:21.474Z,2.83
2023-04-02T12:38:52.102Z,2.80
2023-04-02T12:41:23.943Z,3.17
2023-04-02T12:44:11.572Z,2.40
2023-04-02T12:46:38.947Z,5.93
2023-04-02T12:49:07.312Z,4.10
2023-04-02T12:51:36.279Z,2.80
2023-04-02T12:54:02.895Z,3.80
2023-04-02T12:56:29.347Z,2.27
2023-04-02T12:58:56.696Z,5.13
2023-04-02T13:01:28.293Z,3.87
2023-04-02T13:04:01.024Z,4.33
2023-04-02T13:06:27.848Z,6.63
2023-04-02T13:08:54.522Z,2.00
2023-04-02T13:11:22.673Z,4.90
2023-04-02T13:13:50.106Z,4.10
2023-04-02T13:16:19.510Z,3.40
2023-04-02T13:18:47.191Z,3.00
2023-04-02T13:21:16.495Z,4.23
2023-04-02T13:23:43.886Z,3.00
2023-04-02T13:26:14.622Z,4.63
2023-04-02T13:28:41.024Z,4.17
2023-04-02T13:31:13.210Z,4.07
2023-04-02T13:33:39.611Z,3.03
2023-04-02T13:36:06.532Z,4.23
2023-04-02T13:38:32.897Z,3.60
2023-04-02T13:40:59.303Z,5.20
2023-04-02T13:43:26.995Z,3.57
2023-04-02T13:45:54.347Z,1.90
2023-04-02T13:48:24.571Z,2.30
2023-04-02T13:50:51.838Z,1.27
2023-04-02T13:53:24.278Z,3.03
2023-04-02T13:55:52.176Z,3.00
2023-04-02T13:58:19.112Z,6.53
2023-04-02T14:00:46.185Z,2.37
2023-04-02T14:03:21.845Z,2.37
2023-04-02T14:05:48.219Z,2.70
2023-04-02T14:08:33.734Z,2.33
2023-04-02T14:11:03.219Z,1.00
2023-04-02T14:13:52.542Z,3.60
2023-04-02T14:16:18.881Z,3.43
2023-04-02T14:18:48.304Z,1.57
2023-04-02T14:21:18.885Z,3.43
2023-04-02T14:24:06.893Z,2.50
2023-04-02T14:26:53.572Z,3.63
2023-04-02T14:29:28.799Z,3.57
2023-04-02T14:32:02.951Z,2.50
2023-04-02T14:34:46.541Z,2.03
2023-04-02T14:37:20.022Z,2.00
2023-04-02T14:40:04.078Z,3.73
2023-04-02T14:42:30.489Z,2.20
2023-04-02T14:45:01.241Z,1.47
2023-04-02T14:47:37.220Z,4.23
2023-04-02T14:50:10.043Z,2.00
2023-04-02T14:52:36.885Z,1.37
2023-04-02T14:55:10.004Z,3.17
2023-04-02T14:57:38.597Z,2.33
2023-04-02T15:00:24.142Z,2.33
2023-04-02T15:02:55.817Z,4.93
2023-04-02T15:05:30.336Z,5.40
2023-04-02T15:07:59.379Z,2.57
2023-04-02T15:10:28.604Z,2.17
2023-04-02T15:12:59.947Z,4.17
2023-04-02T15:15:44.526Z,2.77
2023-04-02T15:18:12.686Z,3.17
2023-04-02T15:20:45.438Z,3.30
2023-04-02T15:23:23.645Z,3.23
2023-04-02T15:26:17.467Z,3.23
2023-04-02T15:28:47.661Z,3.40
2023-04-02T15:31:14.744Z,3.23
2023-04-02T15:33:44.823Z,2.83
2023-04-02T15:36:17.314Z,3.10
2023-04-02T15:38:47.728Z,2.07
2023-04-02T15:41:23.748Z,3.47
2023-04-02T15:44:09.837Z,4.43
2023-04-02T15:46:56.117Z,2.30
2023-04-02T15:49:41.799Z,1.83
2023-04-02T15:52:11.500Z,1.90
2023-04-02T15:54:57.029Z,2.63
2023-04-02T15:57:23.548Z,2.97
2023-04-02T15:59:52.061Z,3.20
2023-04-02T16:02:28.080Z,1.47
2023-04-02T16:05:18.203Z,2.70
2023-04-02T16:08:04.860Z,1.60
2023-04-02T16:10:42.482Z,1.33
2023-04-02T16:13:18.643Z,3.17
2023-04-02T16:15:53.417Z,1.30
2023-04-02T16:18:33.025Z,1.57
2023-04-02T16:21:01.538Z,4.40
2023-04-02T16:23:35.355Z,3.40
2023-04-02T16:26:08.109Z,2.93
2023-04-02T16:28:38.326Z,6.07
2023-04-02T16:31:04.784Z,1.00
2023-04-02T16:33:39.206Z,3.50
2023-04-02T16:36:22.035Z,1.33
2023-04-02T16:39:12.302Z,1.17
2023-04-02T16:41:59.860Z,3.97
2023-04-02T16:44:26.146Z,6.13
2023-04-02T16:47:04.571Z,4.40
2023-04-02T16:49:37.049Z,2.60
2023-04-02T16:52:26.841Z,3.03
2023-04-02T16:55:02.684Z,1.80
2023-04-02T16:58:01.585Z,2.33
2023-04-02T17:00:30.926Z,4.03
2023-04-02T17:02:57.317Z,2.73
2023-04-02T17:05:33.743Z,1.13
2023-04-02T17:08:13.924Z,4.17
2023-04-02T17:10:46.843Z,4.20
2023-04-02T17:13:19.090Z,5.87
2023-04-02T17:15:49.512Z,3.37
2023-04-02T17:18:24.778Z,4.00
2023-04-02T17:20:51.421Z,1.00
2023-04-02T17:23:18.888Z,3.90
2023-04-02T17:25:48.174Z,2.73
2023-04-02T17:28:15.596Z,1.20
2023-04-02T17:30:47.325Z,3.90
2023-04-02T17:33:14.900Z,3.27
2023-04-02T17:35:41.411Z,1.50
2023-04-02T17:38:26.280Z,2.93
2023-04-02T17:41:04.049Z,1.63
2023-04-02T17:43:46.130Z,1.13
2023-04-02T17:46:27.680Z,1.50
2023-04-02T17:49:00.397Z,4.07
2023-04-02T17:51:33.244Z,1.70
2023-04-02T17:54:09.798Z,3.50
2023-04-02T17:56:54.596Z,2.93
2023-04-02T17:59:24.022Z,1.10
2023-04-02T18:01:59.476Z,2.47
2023-04-02T18:04:37.559Z,2.07
2023-04-02T18:07:13.570Z,2.97
2023-04-02T18:10:02.321Z,1.63
2023-04-02T18:12:44.093Z,2.93
2023-04-02T18:15:29.009Z,1.63
2023-04-02T18:17:59.010Z,1.50
2023-04-02T18:20:38.300Z,1.40
2023-04-02T18:23:11.000Z,1.67
2023-04-02T18:25:49.192Z,4.97
2023-04-02T18:28:33.542Z,2.93
2023-04-02T18:31:00.924Z,4.40
2023-04-02T18:33:33.545Z,3.00
2023-04-02T18:36:09.074Z,3.47
2023-04-02T18:38:55.220Z,2.10
2023-04-02T18:41:24.630Z,2.27
2023-04-02T18:44:23.651Z,3.27
2023-04-02T18:46:51.976Z,1.13
2023-04-02T18:49:30.705Z,4.13
2023-04-02T18:52:03.947Z,0.97
2023-04-02T18:54:39.341Z,2.50
2023-04-02T18:57:11.369Z,2.37
2023-04-02T18:59:53.216Z,3.30
2023-04-02T19:02:38.650Z,1.93
2023-04-02T19:05:14.102Z,2.03
2023-04-02T19:07:42.210Z,3.17
2023-04-02T19:10:34.951Z,1.43
2023-04-02T19:13:01.554Z,2.53
2023-04-02T19:15:57.188Z,4.10
2023-04-02T19:18:39.028Z,4.13
2023-04-02T19:21:15.172Z,4.33
2023-04-02T19:23:50.643Z,2.30
2023-04-02T19:26:19.158Z,3.07
2023-04-02T19:28:48.353Z,1.10
2023-04-02T19:31:22.909Z,3.03
2023-04-02T19:33:52.621Z,2.43
2023-04-02T19:36:28.256Z,2.03
2023-04-02T19:39:13.604Z,2.20
2023-04-02T19:41:52.438Z,4.23
2023-04-02T19:44:18.917Z,2.93
2023-04-02T19:46:45.646Z,2.33
2023-04-02T19:49:16.747Z,2.83
2023-04-02T19:51:46.097Z,3.50
2023-04-02T19:54:12.797Z,3.17
2023-04-02T19:56:39.577Z,3.20
2023-04-02T19:59:16.997Z,5.03
2023-04-02T20:01:44.803Z,4.87
2023-04-02T20:04:11.327Z,3.47
2023-04-02T20:06:37.870Z,3.30
2023-04-02T20:09:04.197Z,3.07
2023-04-02T20:11:31.038Z,3.70
2023-04-02T20:13:57.388Z,2.30
2023-04-02T20:16:23.859Z,3.53
2023-04-02T20:18:50.332Z,5.77
2023-04-02T20:21:16.762Z,2.30
2023-04-02T20:23:43.318Z,3.90
2023-04-02T20:26:09.772Z,2.83
2023-04-02T20:28:36.170Z,4.00
2023-04-02T20:31:10.167Z,2.30
2023-04-02T20:33:37.279Z,2.50
2023-04-02T20:36:05.576Z,5.17
2023-04-02T20:38:33.202Z,2.67
2023-04-02T20:41:00.209Z,2.47
2023-04-02T20:43:28.362Z,1.43
2023-04-02T20:45:59.052Z,3.50
2023-04-02T20:48:27.505Z,1.57
2023-04-02T20:50:54.368Z,3.23
2023-04-02T20:53:20.967Z,1.33
2023-04-02T20:55:47.412Z,6.40
2023-04-02T20:58:15.049Z,4.00
2023-04-02T21:00:41.862Z,1.73
2023-04-02T21:03:09.989Z,1.33
2023-04-02T21:05:43.667Z,5.67
2023-04-02T21:08:10.221Z,2.70
2023-04-02T21:10:36.895Z,3.20
2023-04-02T21:13:03.506Z,5.07
2023-04-02T21:15:29.842Z,3.27
2023-04-02T21:17:56.274Z,2.37
2023-04-02T21:20:22.790Z,2.50
2023-04-02T21:22:49.097Z,1.53
2023-04-02T21:25:15.450Z,2.87
2023-04-02T21:27:41.992Z,1.70
2023-04-02T21:30:08.644Z,3.00
2023-04-02T21:32:35.179Z,1.13
2023-04-02T21:35:01.526Z,2.97
2023-04-02T21:37:27.843Z,3.00
2023-04-02T21:39:54.199Z,3.53
2023-04-02T21:42:22.373Z,4.90
2023-04-02T21:44:48.808Z,2.00
2023-04-02T21:47:15.406Z,4.47
2023-04-02T21:49:41.781Z,5.93
2023-04-02T21:52:08.201Z,4.73
2023-04-02T21:54:34.512Z,4.97
2023-04-02T21:57:00.858Z,4.27
2023-04-02T21:59:27.461Z,3.60
2023-04-02T22:01:54.240Z,2.20
2023-04-02T22:04:22.772Z,3.90
2023-04-02T22:06:49.762Z,2.50
2023-04-02T22:09:21.132Z,2.67
2023-04-02T22:11:48.756Z,3.53
2023-04-02T22:14:15.455Z,5.50
2023-04-02T22:16:42.320Z,3.50
2023-04-02T22:19:10.191Z,2.83
2023-04-02T22:21:36.976Z,2.60
2023-04-02T22:24:04.700Z,2.03
2023-04-02T22:26:31.632Z,2.57
2023-04-02T22:28:58.495Z,4.50
2023-04-02T22:31:26.433Z,3.57
2023-04-02T22:33:53.632Z,6.67
2023-04-02T22:36:21.680Z,2.87
2023-04-02T22:38:48.110Z,4.80
2023-04-02T22:41:15.730Z,2.63
2023-04-02T22:43:44.016Z,2.93
2023-04-02T22:46:11.572Z,2.40
2023-04-02T22:48:39.736Z,1.70
2023-04-02T22:51:07.539Z,2.50
2023-04-02T22:53:34.411Z,3.83
2023-04-02T22:56:03.698Z,3.63
2023-04-02T22:58:30.235Z,6.80
2023-04-02T23:00:56.557Z,2.17
2023-04-02T23:03:22.924Z,1.97
2023-04-02T23:06:03.556Z,2.67
2023-04-02T23:08:29.973Z,3.87
2023-04-02T23:11:02.732Z,5.27
2023-04-02T23:13:29.133Z,2.37
2023-04-02T23:15:56.081Z,4.63
2023-04-02T23:18:22.675Z,3.60
2023-04-02T23:20:48.994Z,2.67
2023-04-02T23:23:15.407Z,3.13
2023-04-02T23:25:42.172Z,1.87
2023-04-02T23:28:10.237Z,1.63
2023-04-02T23:30:37.268Z,3.97
2023-04-02T23:33:04.836Z,3.77
2023-04-02T23:35:31.299Z,4.47
2023-04-02T23:37:59.753Z,9.13
2023-04-02T23:40:26.223Z,2.47
2023-04-02T23:42:52.731Z,1.70
2023-04-02T23:45:19.258Z,4.43
2023-04-02T23:47:45.749Z,2.87
2023-04-02T23:50:12.169Z,1.53
2023-04-02T23:52:38.568Z,2.40
2023-04-02T23:55:05.372Z,3.03
2023-04-02T23:57:31.713Z,4.33
2023-04-02T23:59:58.146Z,2.63
